Time;durP1;ratioP1;P1;durP2;ratioP2;P2;SDS_P1;SDS_P2;PMS_P1;PMS_P2;Temp;Humidity;BMP_temperature;BMP_pressure;BME280_temperature;BME280_humidity;BME280_pressure;Samples;Min_cycle;Max_cycle;Signal;HPM_P1;HPM_P2
2023/08/12 00:00:07;;;;;;;;;;;;;;;22.40;62.96;97539.55;565417;250;65222;-76
2023/08/12 00:02:32;;;;;;;;;;;;;;;22.40;62.73;97539.55;565344;250;66762;-75
2023/08/12 00:05:00;;;;;;;;;;;;;;;22.41;63.33;97551.06;565482;250;67011;-75
2023/08/12 00:07:27;;;;;;;;;;;;;;;22.41;62.95;97545.70;565382;251;64928;-75
2023/08/12 00:09:56;;;;;;;;;;;;;;;22.40;62.84;97544.91;565449;251;64447;-75
2023/08/12 00:12:23;;;;;;;;;;;;;;;22.41;63.01;97540.34;565550;250;67259;-75
2023/08/12 00:14:50;;;;;;;;;;;;;;;22.41;63.18;97551.06;565453;251;64992;-75
2023/08/12 00:17:18;;;;;;;;;;;;;;;22.40;63.15;97544.91;565404;250;66761;-75
2023/08/12 00:19:45;;;;;;;;;;;;;;;22.39;63.41;97537.92;565719;250;64460;-75
2023/08/12 00:22:13;;;;;;;;;;;;;;;22.39;63.38;97537.92;565419;250;65360;-75
2023/08/12 00:24:40;;;;;;;;;;;;;;;22.39;63.14;97532.57;565431;251;64919;-75
2023/08/12 00:27:08;;;;;;;;;;;;;;;22.38;63.09;97531.77;565427;250;66872;-75
2023/08/12 00:29:36;;;;;;;;;;;;;;;22.38;63.10;97536.33;565437;251;62841;-75
2023/08/12 00:32:04;;;;;;;;;;;;;;;22.38;63.22;97526.41;565575;250;64633;-75
2023/08/12 00:34:32;;;;;;;;;;;;;;;22.38;62.75;97523.73;565505;250;64206;-75
2023/08/12 00:36:59;;;;;;;;;;;;;;;22.38;62.96;97526.41;565404;251;62739;-75
2023/08/12 00:39:27;;;;;;;;;;;;;;;22.38;63.05;97526.41;565456;250;66831;-75
2023/08/12 00:41:55;;;;;;;;;;;;;;;22.39;63.00;97529.89;565393;251;67109;-75
2023/08/12 00:44:23;;;;;;;;;;;;;;;22.38;62.79;97531.77;565410;251;65025;-75
2023/08/12 00:46:51;;;;;;;;;;;;;;;22.38;62.28;97523.73;565512;250;66773;-75
2023/08/12 00:49:19;;;;;;;;;;;;;;;22.38;62.72;97525.62;565471;250;66767;-75
2023/08/12 00:51:46;;;;;;;;;;;;;;;22.38;62.64;97525.62;565509;250;64934;-75
2023/08/12 00:54:15;;;;;;;;;;;;;;;22.37;62.85;97519.47;565460;251;66835;-75
2023/08/12 00:56:43;;;;;;;;;;;;;;;22.37;62.88;97516.79;565495;250;64802;-75
2023/08/12 00:59:12;;;;;;;;;;;;;;;22.37;62.70;97514.11;565460;250;65601;-75
2023/08/12 01:01:41;;;;;;;;;;;;;;;22.38;62.75;97520.27;565531;250;66851;-76
2023/08/12 01:04:09;;;;;;;;;;;;;;;22.38;62.87;97513.03;565492;251;64165;-75
2023/08/12 01:06:39;;;;;;;;;;;;;;;22.38;63.09;97515.70;565453;251;65151;-75
2023/08/12 01:09:07;;;;;;;;;;;;;;;22.37;63.10;97508.75;565425;250;64730;-76
2023/08/12 01:11:52;;;;;;;;;;;;;;;22.36;62.80;97515.16;565529;250;64787;-76
2023/08/12 01:14:21;;;;;;;;;;;;;;;22.36;63.17;97509.80;565368;251;62785;-75
2023/08/12 01:16:50;;;;;;;;;;;;;;;22.36;62.47;97509.01;565176;250;64816;-75
2023/08/12 01:19:20;;;;;;;;;;;;;;;22.36;62.38;97506.33;565439;251;67236;-76
2023/08/12 01:21:48;;;;;;;;;;;;;;;22.36;62.55;97512.48;564735;250;65171;-76
2023/08/12 01:24:16;;;;;;;;;;;;;;;22.35;62.66;97505.53;565501;250;66866;-76
2023/08/12 01:26:43;;;;;;;;;;;;;;;22.36;62.70;97507.13;565623;250;64094;-76
2023/08/12 01:29:11;;;;;;;;;;;;;;;22.36;62.86;97499.09;565461;251;62854;-76
2023/08/12 01:31:41;;;;;;;;;;;;;;;22.35;62.57;97500.17;565444;251;66701;-76
2023/08/12 01:34:26;;;;;;;;;;;;;;;22.35;62.63;97497.50;565314;251;66384;-75
2023/08/12 01:36:55;;;;;;;;;;;;;;;22.36;62.25;97498.30;565486;249;64002;-77
2023/08/12 01:39:24;;;;;;;;;;;;;;;22.36;62.74;97507.13;565469;251;67387;-76
2023/08/12 01:41:53;;;;;;;;;;;;;;;22.35;62.59;97502.86;565472;250;64562;-76
2023/08/12 01:44:20;;;;;;;;;;;;;;;22.34;62.83;97498.58;565515;250;64950;-76
2023/08/12 01:46:50;;;;;;;;;;;;;;;22.34;62.71;97495.91;565566;250;66984;-76
2023/08/12 01:49:18;;;;;;;;;;;;;;;22.35;62.73;97499.38;565525;250;64445;-76
2023/08/12 01:51:46;;;;;;;;;;;;;;;22.35;62.70;97499.38;565607;250;62978;-76
2023/08/12 01:54:13;;;;;;;;;;;;;;;22.34;62.89;97501.26;565434;250;64696;-76
2023/08/12 01:56:41;;;;;;;;;;;;;;;22.34;62.83;97503.94;565456;251;64686;-76
2023/08/12 01:59:08;;;;;;;;;;;;;;;22.33;62.88;97499.63;565417;251;62824;-76
2023/08/12 02:01:36;;;;;;;;;;;;;;;22.34;62.71;97500.44;565434;251;64652;-76
2023/08/12 02:04:03;;;;;;;;;;;;;;;22.34;62.80;97501.26;565480;250;66046;-76
2023/08/12 02:06:31;;;;;;;;;;;;;;;22.34;62.65;97503.11;565507;250;62904;-76
2023/08/12 02:09:00;;;;;;;;;;;;;;;22.34;62.64;97500.44;565544;250;67618;-76
2023/08/12 02:11:27;;;;;;;;;;;;;;;22.33;62.88;97502.31;565588;250;64651;-76
2023/08/12 02:13:55;;;;;;;;;;;;;;;22.34;62.92;97500.44;565434;251;62822;-77
2023/08/12 02:16:22;;;;;;;;;;;;;;;22.33;62.06;97502.31;565451;251;66816;-76
2023/08/12 02:18:50;;;;;;;;;;;;;;;22.33;62.35;97494.28;565495;250;67215;-76
2023/08/12 02:21:17;;;;;;;;;;;;;;;22.33;62.87;97496.16;565484;250;65137;-76
2023/08/12 02:23:46;;;;;;;;;;;;;;;22.33;62.52;97496.16;565401;251;67415;-76
2023/08/12 02:26:14;;;;;;;;;;;;;;;22.33;62.52;97496.16;565433;251;67073;-76
2023/08/12 02:28:41;;;;;;;;;;;;;;;22.32;62.86;97492.69;565392;250;66198;-76
2023/08/12 02:31:09;;;;;;;;;;;;;;;22.32;62.53;97498.04;565382;251;67780;-76
2023/08/12 02:33:36;;;;;;;;;;;;;;;22.33;62.70;97496.16;565596;250;66647;-76
2023/08/12 02:36:04;;;;;;;;;;;;;;;22.32;62.89;97500.72;565600;250;65096;-76
2023/08/12 02:38:31;;;;;;;;;;;;;;;22.32;62.35;97502.59;565516;250;66850;-75
2023/08/12 02:40:59;;;;;;;;;;;;;;;22.32;62.41;97507.95;565440;250;64830;-76
2023/08/12 02:43:26;;;;;;;;;;;;;;;22.32;62.48;97500.72;565561;250;62870;-76
2023/08/12 02:45:54;;;;;;;;;;;;;;;22.32;62.39;97510.63;565606;250;66677;-76
2023/08/12 02:48:21;;;;;;;;;;;;;;;22.31;62.57;97504.45;565404;251;64814;-76
2023/08/12 02:50:49;;;;;;;;;;;;;;;22.30;62.68;97497.50;565499;250;65390;-76
2023/08/12 02:53:17;;;;;;;;;;;;;;;22.31;62.42;97509.80;565825;250;65139;-76
2023/08/12 02:55:47;;;;;;;;;;;;;;;22.32;62.57;97507.95;565442;251;66832;-75
2023/08/12 02:58:15;;;;;;;;;;;;;;;22.29;62.43;97503.93;565712;250;62733;-77
2023/08/12 03:00:46;;;;;;;;;;;;;;;22.31;62.16;97506.33;565528;250;65011;-74
2023/08/12 03:03:13;;;;;;;;;;;;;;;22.31;62.50;97515.16;565392;251;64899;-75
2023/08/12 03:05:41;;;;;;;;;;;;;;;22.29;62.25;97506.61;565434;251;62827;-75
2023/08/12 03:08:08;;;;;;;;;;;;;;;22.29;62.38;97501.25;565516;249;67184;-76
2023/08/12 03:10:36;;;;;;;;;;;;;;;22.31;62.28;97509.00;565433;250;66898;-75
2023/08/12 03:13:04;;;;;;;;;;;;;;;22.30;61.90;97502.05;565451;251;65227;-75
2023/08/12 03:15:31;;;;;;;;;;;;;;;22.29;61.54;97509.28;565382;250;67154;-75
2023/08/12 03:17:59;;;;;;;;;;;;;;;22.29;62.23;97509.28;565483;250;64795;-75
2023/08/12 03:20:27;;;;;;;;;;;;;;;22.29;62.10;97509.28;565398;251;65812;-75
2023/08/12 03:22:54;;;;;;;;;;;;;;;22.30;61.70;97510.08;565386;251;67077;-75
2023/08/12 03:25:23;;;;;;;;;;;;;;;22.29;62.13;97505.78;565503;250;67416;-75
2023/08/12 03:27:50;;;;;;;;;;;;;;;22.28;61.73;97513.02;565419;251;62837;-75
2023/08/12 03:30:18;;;;;;;;;;;;;;;22.28;61.69;97510.34;565468;250;67005;-75
2023/08/12 03:32:47;;;;;;;;;;;;;;;22.27;61.40;97506.06;565449;251;67195;-75
2023/08/12 03:35:15;;;;;;;;;;;;;;;22.28;61.60;97510.34;565427;251;65739;-75
2023/08/12 03:37:42;;;;;;;;;;;;;;;22.27;61.47;97516.78;565450;251;65200;-75
2023/08/12 03:40:10;;;;;;;;;;;;;;;22.28;61.49;97509.54;561145;251;68487;-75
2023/08/12 03:42:38;;;;;;;;;;;;;;;22.28;61.46;97518.38;565495;250;64968;-75
2023/08/12 03:45:07;;;;;;;;;;;;;;;22.27;61.27;97514.09;565451;251;64579;-75
2023/08/12 03:47:35;;;;;;;;;;;;;;;22.28;61.60;97517.58;565468;250;66916;-75
2023/08/12 03:50:03;;;;;;;;;;;;;;;22.27;61.35;97519.45;565447;251;62522;-75
2023/08/12 03:52:31;;;;;;;;;;;;;;;22.27;61.38;97516.78;565410;250;67632;-75
2023/08/12 03:54:58;;;;;;;;;;;;;;;22.27;61.19;97524.01;565399;251;66966;-75
2023/08/12 03:57:26;;;;;;;;;;;;;;;22.26;61.75;97525.89;565418;251;62418;-75
2023/08/12 03:59:54;;;;;;;;;;;;;;;22.27;61.16;97534.72;565448;251;66822;-75
2023/08/12 04:02:21;;;;;;;;;;;;;;;22.25;61.03;97534.97;565469;251;64970;-75
2023/08/12 04:04:49;;;;;;;;;;;;;;;22.28;61.37;97536.31;565433;251;65025;-75
2023/08/12 04:07:16;;;;;;;;;;;;;;;22.26;61.26;97539.28;565728;250;67382;-75
2023/08/12 04:09:44;;;;;;;;;;;;;;;22.25;61.27;97534.17;565473;250;66939;-75
2023/08/12 04:12:12;;;;;;;;;;;;;;;22.25;61.44;97537.65;565416;251;65186;-75
2023/08/12 04:14:40;;;;;;;;;;;;;;;22.26;61.56;97539.28;565452;250;68250;-75
2023/08/12 04:17:08;;;;;;;;;;;;;;;22.25;61.41;97534.97;565620;250;64715;-75
2023/08/12 04:19:35;;;;;;;;;;;;;;;22.26;61.60;97541.13;565417;251;62848;-75
2023/08/12 04:22:04;;;;;;;;;;;;;;;22.25;61.54;97537.65;565423;251;67605;-75
2023/08/12 04:24:31;;;;;;;;;;;;;;;22.25;61.20;97537.65;565407;250;66979;-75
2023/08/12 04:26:59;;;;;;;;;;;;;;;22.24;60.91;97541.41;565527;250;62842;-75
2023/08/12 04:29:27;;;;;;;;;;;;;;;22.25;61.05;97542.20;565276;251;67492;-75
2023/08/12 04:31:55;;;;;;;;;;;;;;;22.24;61.40;97536.05;565401;251;64467;-75
2023/08/12 04:34:23;;;;;;;;;;;;;;;22.25;61.78;97531.50;565479;250;65727;-75
2023/08/12 04:36:52;;;;;;;;;;;;;;;22.25;61.37;97534.17;565414;251;64477;-75
2023/08/12 04:39:20;;;;;;;;;;;;;;;22.24;61.39;97532.58;565509;250;67013;-76
2023/08/12 04:41:47;;;;;;;;;;;;;;;22.24;61.53;97538.73;565621;250;65191;-76
2023/08/12 04:44:15;;;;;;;;;;;;;;;22.24;61.47;97533.38;565419;251;67761;-76
2023/08/12 04:46:43;;;;;;;;;;;;;;;22.24;61.57;97532.58;565507;250;67041;-76
2023/08/12 04:49:11;;;;;;;;;;;;;;;22.24;61.79;97536.05;565426;251;65174;-76
2023/08/12 04:51:39;;;;;;;;;;;;;;;22.24;61.56;97533.38;565435;249;67186;-75
2023/08/12 04:54:07;;;;;;;;;;;;;;;22.23;62.01;97536.30;565363;251;65260;-76
2023/08/12 04:56:35;;;;;;;;;;;;;;;22.22;61.78;97530.16;565379;250;65075;-76
2023/08/12 04:59:03;;;;;;;;;;;;;;;22.23;61.62;97539.78;565397;251;67113;-76
2023/08/12 05:01:32;;;;;;;;;;;;;;;22.23;61.67;97534.42;565452;250;67095;-76
2023/08/12 05:03:59;;;;;;;;;;;;;;;22.24;61.79;97530.70;565414;250;64887;-76
2023/08/12 05:06:27;;;;;;;;;;;;;;;22.23;61.75;97536.30;565343;251;64455;-76
2023/08/12 05:08:55;;;;;;;;;;;;;;;22.23;62.02;97531.75;565420;251;66746;-76
2023/08/12 05:11:22;;;;;;;;;;;;;;;22.23;62.20;97530.95;565374;250;62431;-76
2023/08/12 05:13:50;;;;;;;;;;;;;;;22.23;62.17;97531.75;565510;250;64663;-76
2023/08/12 05:16:17;;;;;;;;;;;;;;;22.22;62.08;97532.83;565385;251;67051;-76
2023/08/12 05:18:45;;;;;;;;;;;;;;;22.23;62.37;97525.59;565356;250;65404;-76
2023/08/12 05:21:13;;;;;;;;;;;;;;;22.22;62.64;97530.16;565412;250;65097;-76
2023/08/12 05:23:42;;;;;;;;;;;;;;;22.22;62.25;97527.48;565414;251;66899;-76
2023/08/12 05:26:09;;;;;;;;;;;;;;;22.23;62.00;97533.63;565536;250;62860;-77
2023/08/12 05:28:37;;;;;;;;;;;;;;;22.23;62.10;97528.27;565459;250;67269;-77
2023/08/12 05:31:04;;;;;;;;;;;;;;;22.23;62.06;97536.30;565362;251;66941;-77
2023/08/12 05:33:32;;;;;;;;;;;;;;;22.22;61.79;97532.83;565506;250;64940;-76
2023/08/12 05:35:59;;;;;;;;;;;;;;;22.22;61.89;97530.16;565397;251;66898;-77
2023/08/12 05:38:27;;;;;;;;;;;;;;;22.22;62.06;97535.51;565521;250;64452;-77
2023/08/12 05:40:54;;;;;;;;;;;;;;;22.22;62.42;97532.83;565326;250;64936;-76
2023/08/12 05:43:22;;;;;;;;;;;;;;;22.22;62.50;97538.19;565468;251;66914;-77
2023/08/12 05:45:49;;;;;;;;;;;;;;;22.23;62.23;97528.27;565455;250;66708;-77
2023/08/12 05:48:17;;;;;;;;;;;;;;;22.23;62.61;97530.95;565439;251;65158;-76
2023/08/12 05:50:44;;;;;;;;;;;;;;;22.22;62.58;97526.67;565405;250;66991;-76
2023/08/12 05:53:12;;;;;;;;;;;;;;;22.22;62.38;97524.00;565385;251;64666;-77
2023/08/12 05:55:39;;;;;;;;;;;;;;;22.22;62.54;97522.13;565180;251;65034;-77
2023/08/12 05:58:07;;;;;;;;;;;;;;;22.21;62.42;97522.38;565766;250;66847;-77
2023/08/12 06:00:34;;;;;;;;;;;;;;;22.22;62.25;97518.65;565457;251;66660;-77
2023/08/12 06:03:02;;;;;;;;;;;;;;;22.22;62.73;97526.67;565340;251;64923;-77
2023/08/12 06:05:29;;;;;;;;;;;;;;;22.21;62.35;97517.84;565324;251;64912;-77
2023/08/12 06:07:57;;;;;;;;;;;;;;;22.22;62.54;97519.45;565434;249;67232;-76
2023/08/12 06:10:24;;;;;;;;;;;;;;;22.21;62.21;97520.52;565367;251;64901;-77
2023/08/12 06:12:51;;;;;;;;;;;;;;;22.22;62.23;97519.45;565394;251;67266;-76
2023/08/12 06:15:19;;;;;;;;;;;;;;;22.21;62.65;97515.17;565398;251;65619;-76
2023/08/12 06:17:47;;;;;;;;;;;;;;;22.21;62.63;97509.81;565331;250;65188;-76
2023/08/12 06:20:14;;;;;;;;;;;;;;;22.21;61.93;97508.98;565315;250;64826;-77
2023/08/12 06:22:42;;;;;;;;;;;;;;;22.18;58.91;97510.36;565441;251;66993;-76
2023/08/12 06:25:09;;;;;;;;;;;;;;;22.20;59.39;97507.39;565140;250;62707;-76
2023/08/12 06:27:36;;;;;;;;;;;;;;;22.21;61.03;97503.63;565389;251;64466;-77
2023/08/12 06:30:05;;;;;;;;;;;;;;;22.22;60.94;97506.06;564970;249;64642;-77
2023/08/12 06:32:34;;;;;;;;;;;;;;;22.22;61.25;97506.06;564778;250;63064;-77
2023/08/12 06:35:01;;;;;;;;;;;;;;;22.23;61.63;97494.27;561781;250;67517;-76
2023/08/12 06:37:29;;;;;;;;;;;;;;;22.24;61.51;97503.92;564894;249;66883;-76
2023/08/12 06:39:56;;;;;;;;;;;;;;;22.24;61.91;97487.86;564646;250;65030;-76
2023/08/12 06:42:24;;;;;;;;;;;;;;;22.25;62.49;97489.45;565151;250;67166;-76
2023/08/12 06:44:53;;;;;;;;;;;;;;;22.24;62.52;97501.25;564942;249;66908;-76
2023/08/12 06:47:20;;;;;;;;;;;;;;;22.25;61.71;97502.05;565066;250;62845;-76
2023/08/12 06:49:48;;;;;;;;;;;;;;;22.26;62.54;97500.97;565139;250;65064;-76
2023/08/12 06:52:16;;;;;;;;;;;;;;;22.27;62.84;97498.03;564759;250;64851;-76
2023/08/12 06:54:43;;;;;;;;;;;;;;;22.26;62.03;97488.41;565343;251;65152;-75
2023/08/12 06:57:11;;;;;;;;;;;;;;;22.27;62.31;97481.97;565026;250;67148;-75
2023/08/12 06:59:39;;;;;;;;;;;;;;;22.27;63.08;97487.33;565031;251;64854;-75
2023/08/12 07:02:07;;;;;;;;;;;;;;;22.26;62.19;97491.08;565192;250;63117;-75
2023/08/12 07:04:35;;;;;;;;;;;;;;;22.28;62.69;97488.92;565114;250;67217;-75
2023/08/12 07:07:02;;;;;;;;;;;;;;;22.28;63.19;97488.92;565055;251;65689;-75
2023/08/12 07:09:30;;;;;;;;;;;;;;;22.27;63.32;97487.33;564981;251;65113;-75
2023/08/12 07:11:57;;;;;;;;;;;;;;;22.28;62.60;97485.45;565062;251;67218;-75
2023/08/12 07:14:25;;;;;;;;;;;;;;;22.28;63.89;97483.56;565164;250;64639;-75
2023/08/12 07:16:54;;;;;;;;;;;;;;;22.28;63.71;97491.59;564692;250;64933;-75
2023/08/12 07:19:21;;;;;;;;;;;;;;;22.28;63.41;97480.09;564910;250;67122;-75
2023/08/12 07:21:49;;;;;;;;;;;;;;;22.29;63.27;97482.52;565512;250;67302;-75
2023/08/12 07:24:16;;;;;;;;;;;;;;;22.28;63.07;97486.24;565324;251;64970;-75
2023/08/12 07:26:44;;;;;;;;;;;;;;;22.29;63.39;97476.33;565414;250;64911;-75
2023/08/12 07:29:11;;;;;;;;;;;;;;;22.29;63.28;97470.98;565370;251;66722;-75
2023/08/12 07:31:39;;;;;;;;;;;;;;;22.29;63.67;97474.48;565419;251;65092;-75
2023/08/12 07:34:06;;;;;;;;;;;;;;;22.30;63.97;97478.75;565452;250;67203;-75
2023/08/12 07:36:34;;;;;;;;;;;;;;;22.29;63.14;97477.16;565370;251;66983;-75
2023/08/12 07:39:01;;;;;;;;;;;;;;;22.29;63.04;97474.48;565440;250;65197;-75
2023/08/12 07:41:29;;;;;;;;;;;;;;;22.31;62.83;97474.99;564661;250;66931;-75
2023/08/12 07:43:56;;;;;;;;;;;;;;;22.32;63.28;97475.82;565129;251;68472;-75
2023/08/12 07:46:24;;;;;;;;;;;;;;;22.31;63.22;97472.31;556384;251;68741;-75
2023/08/12 07:48:51;;;;;;;;;;;;;;;22.32;62.51;97470.47;556379;251;70945;-75
2023/08/12 07:51:19;;;;;;;;;;;;;;;22.32;63.07;97470.47;565466;251;64875;-75
2023/08/12 07:53:46;;;;;;;;;;;;;;;22.32;62.49;97471.27;565279;251;62816;-75
2023/08/12 07:56:14;;;;;;;;;;;;;;;22.31;62.63;97472.31;565466;250;64951;-75
2023/08/12 07:58:42;;;;;;;;;;;;;;;22.32;63.29;97468.59;565416;251;66732;-75
2023/08/12 08:01:09;;;;;;;;;;;;;;;22.33;63.01;97466.70;565399;251;62966;-75
2023/08/12 08:03:37;;;;;;;;;;;;;;;22.33;63.01;97464.03;565457;250;68276;-75
2023/08/12 08:06:04;;;;;;;;;;;;;;;22.33;63.16;97454.11;564953;250;66929;-75
2023/08/12 08:08:32;;;;;;;;;;;;;;;22.33;63.48;97459.47;565127;250;65149;-75
2023/08/12 08:10:59;;;;;;;;;;;;;;;22.33;63.09;97458.67;565075;250;64941;-74
2023/08/12 08:13:27;;;;;;;;;;;;;;;22.33;63.06;97459.47;564627;250;67014;-74
2023/08/12 08:15:55;;;;;;;;;;;;;;;22.33;63.19;97454.11;564705;250;64932;-74
2023/08/12 08:18:22;;;;;;;;;;;;;;;22.34;64.17;97460.27;565092;250;64923;-74
2023/08/12 08:20:50;;;;;;;;;;;;;;;22.33;63.68;97459.47;565106;251;64899;-74
2023/08/12 08:23:17;;;;;;;;;;;;;;;22.32;63.76;97455.20;565000;250;64910;-72
2023/08/12 08:25:45;;;;;;;;;;;;;;;22.33;64.11;97459.47;564869;250;67156;-72
2023/08/12 08:28:12;;;;;;;;;;;;;;;22.34;63.49;97460.27;564881;250;66677;-72
2023/08/12 08:30:40;;;;;;;;;;;;;;;22.33;64.73;97464.83;564974;250;64959;-72
2023/08/12 08:33:07;;;;;;;;;;;;;;;22.33;64.05;97458.67;564960;250;67176;-72
2023/08/12 08:35:35;;;;;;;;;;;;;;;22.33;63.59;97459.47;564998;250;67349;-73
2023/08/12 08:38:02;;;;;;;;;;;;;;;22.33;63.79;97454.11;565144;250;64926;-72
2023/08/12 08:40:30;;;;;;;;;;;;;;;22.34;63.17;97461.09;564769;251;67163;-73
2023/08/12 08:42:59;;;;;;;;;;;;;;;22.34;64.66;97466.45;565479;251;66942;-73
2023/08/12 08:45:26;;;;;;;;;;;;;;;22.34;63.13;97461.09;565337;250;62807;-74
2023/08/12 08:47:54;;;;;;;;;;;;;;;22.35;64.01;97456.53;565338;250;65005;-74
2023/08/12 08:50:22;;;;;;;;;;;;;;;22.33;63.53;97454.11;565408;250;66888;-74
2023/08/12 08:52:51;;;;;;;;;;;;;;;22.35;64.03;97454.66;565368;251;65189;-74
2023/08/12 08:55:18;;;;;;;;;;;;;;;22.35;64.27;97457.33;565403;251;66931;-74
2023/08/12 08:57:46;;;;;;;;;;;;;;;22.34;64.35;97457.59;565363;251;66742;-74
2023/08/12 09:00:14;;;;;;;;;;;;;;;22.35;64.97;97459.22;565334;250;64906;-73
2023/08/12 09:02:42;;;;;;;;;;;;;;;22.35;64.22;97453.86;565468;250;65209;-73
2023/08/12 09:05:10;;;;;;;;;;;;;;;22.35;64.56;97451.98;565473;250;64818;-73
2023/08/12 09:07:37;;;;;;;;;;;;;;;22.35;65.13;97451.18;565467;250;63132;-73
2023/08/12 09:10:05;;;;;;;;;;;;;;;22.35;64.74;97451.18;565434;251;64944;-73
2023/08/12 09:12:33;;;;;;;;;;;;;;;22.35;64.85;97443.15;565364;250;64822;-73
2023/08/12 09:15:00;;;;;;;;;;;;;;;22.36;64.61;97439.39;565375;250;62811;-73
2023/08/12 09:17:28;;;;;;;;;;;;;;;22.35;65.02;97443.95;565334;251;65029;-73
2023/08/12 09:19:55;;;;;;;;;;;;;;;22.35;64.73;97435.91;565429;251;64885;-73
2023/08/12 09:22:25;;;;;;;;;;;;;;;22.35;64.73;97435.11;565490;250;62947;-73
2023/08/12 09:24:59;;;;;;;;;;;;;;;22.35;63.40;97438.59;565382;251;67364;-73
2023/08/12 09:27:26;;;;;;;;;;;;;;;22.36;63.72;97442.06;565381;250;66823;-73
2023/08/12 09:29:56;;;;;;;;;;;;;;;22.37;61.85;97441.81;565480;250;64930;-73
2023/08/12 09:32:24;;;;;;;;;;;;;;;22.37;62.22;97436.45;565402;250;64984;-73
2023/08/12 09:34:52;;;;;;;;;;;;;;;22.38;62.20;97435.38;565421;251;66990;-73
2023/08/12 09:37:20;;;;;;;;;;;;;;;22.38;62.72;97432.69;565656;250;64903;-73
2023/08/12 09:39:49;;;;;;;;;;;;;;;22.38;61.56;97424.66;565360;250;64963;-73
2023/08/12 09:42:16;;;;;;;;;;;;;;;22.38;60.10;97426.54;565402;251;66398;-73
2023/08/12 09:44:44;;;;;;;;;;;;;;;22.39;61.14;97420.89;565496;250;64966;-73
2023/08/12 09:47:12;;;;;;;;;;;;;;;22.39;60.23;97426.25;564996;250;66915;-73
2023/08/12 09:49:40;;;;;;;;;;;;;;;22.41;60.20;97422.52;565048;251;69804;-73
2023/08/12 09:52:08;;;;;;;;;;;;;;;22.41;60.13;97419.84;565071;250;65156;-73
2023/08/12 09:54:36;;;;;;;;;;;;;;;22.41;59.46;97417.17;565114;250;66880;-73
2023/08/12 09:57:04;;;;;;;;;;;;;;;22.42;60.04;97416.87;565349;250;66854;-73
2023/08/12 09:59:32;;;;;;;;;;;;;;;22.42;61.00;97408.05;565149;249;65268;-73
2023/08/12 10:02:00;;;;;;;;;;;;;;;22.42;61.68;97408.84;564916;250;66943;-73
2023/08/12 10:04:29;;;;;;;;;;;;;;;22.42;60.97;97413.41;565018;250;65023;-73
2023/08/12 10:06:57;;;;;;;;;;;;;;;22.41;59.39;97412.61;565114;250;65013;-73
2023/08/12 10:09:25;;;;;;;;;;;;;;;22.42;59.45;97403.48;565208;250;64740;-73
2023/08/12 10:11:54;;;;;;;;;;;;;;;22.43;59.26;97409.67;565135;250;65084;-73
2023/08/12 10:14:22;;;;;;;;;;;;;;;22.43;59.44;97399.76;564795;250;64984;-73
2023/08/12 10:16:49;;;;;;;;;;;;;;;22.43;59.30;97398.96;565057;251;67700;-74
2023/08/12 10:19:18;;;;;;;;;;;;;;;22.43;59.15;97399.76;564873;250;67275;-74
2023/08/12 10:21:46;;;;;;;;;;;;;;;22.43;59.21;97394.40;565071;250;63692;-74
2023/08/12 10:24:16;;;;;;;;;;;;;;;22.44;59.23;97382.60;565485;251;65184;-74
2023/08/12 10:26:44;;;;;;;;;;;;;;;22.43;59.26;97389.05;565032;251;67904;-74
2023/08/12 10:29:11;;;;;;;;;;;;;;;22.44;59.21;97392.52;564943;249;65067;-74
2023/08/12 10:31:40;;;;;;;;;;;;;;;22.45;59.32;97391.44;564957;250;64997;-74
2023/08/12 10:34:07;;;;;;;;;;;;;;;22.45;59.25;97388.75;565268;250;67855;-74
2023/08/12 10:36:35;;;;;;;;;;;;;;;22.44;59.31;97385.28;565017;250;64970;-73
2023/08/12 10:39:02;;;;;;;;;;;;;;;22.44;59.35;97382.60;564710;250;65645;-73
2023/08/12 10:41:32;;;;;;;;;;;;;;;22.45;59.32;97383.41;564897;250;63880;-73
2023/08/12 10:44:03;;;;;;;;;;;;;;;22.46;59.29;97385.02;564626;250;65151;-74
2023/08/12 10:46:35;;;;;;;;;;;;;;;22.45;59.33;97378.05;564729;251;63748;-74
2023/08/12 10:49:06;;;;;;;;;;;;;;;22.46;59.47;97376.99;564749;251;67027;-73
2023/08/12 10:51:53;;;;;;;;;;;;;;;22.45;59.41;97373.48;564911;250;62814;-74
2023/08/12 10:54:30;;;;;;;;;;;;;;;22.45;59.46;97376.16;565053;251;67180;-73
2023/08/12 10:57:05;;;;;;;;;;;;;;;22.46;59.52;97371.63;564803;251;66892;-74
2023/08/12 10:59:37;;;;;;;;;;;;;;;22.45;59.70;97361.98;565207;250;62910;-74
2023/08/12 11:02:08;;;;;;;;;;;;;;;22.45;59.59;97356.63;564538;251;67102;-73
2023/08/12 11:04:39;;;;;;;;;;;;;;;22.45;59.73;97354.73;565201;250;65378;-73
2023/08/12 11:07:16;;;;;;;;;;;;;;;22.46;60.32;97351.01;565162;251;64989;-73
2023/08/12 11:09:44;;;;;;;;;;;;;;;22.45;59.53;97351.27;565142;250;67207;-73
2023/08/12 11:12:11;;;;;;;;;;;;;;;22.46;60.54;97350.20;565109;251;66944;-73
2023/08/12 11:14:54;;;;;;;;;;;;;;;22.45;59.66;97353.94;565214;250;64906;-73
2023/08/12 11:17:23;;;;;;;;;;;;;;;22.46;59.77;97344.86;565259;250;66964;-73
2023/08/12 11:19:50;;;;;;;;;;;;;;;22.46;59.96;97347.53;565004;250;66896;-73
2023/08/12 11:22:18;;;;;;;;;;;;;;;22.45;59.57;97348.59;565190;251;64932;-73
2023/08/12 11:24:46;;;;;;;;;;;;;;;22.46;60.21;97348.33;565275;250;66913;-73
2023/08/12 11:27:14;;;;;;;;;;;;;;;22.46;60.34;97342.17;565160;251;66949;-73
2023/08/12 11:29:42;;;;;;;;;;;;;;;22.46;59.77;97345.65;565142;251;62859;-73
2023/08/12 11:32:09;;;;;;;;;;;;;;;22.46;59.97;97345.65;565073;251;65152;-73
2023/08/12 11:34:37;;;;;;;;;;;;;;;22.47;60.66;97335.73;565125;250;64809;-73
2023/08/12 11:37:06;;;;;;;;;;;;;;;22.47;60.01;97335.73;565231;250;65111;-73
2023/08/12 11:39:34;;;;;;;;;;;;;;;22.47;60.22;97336.53;565177;250;67197;-73
2023/08/12 11:42:02;;;;;;;;;;;;;;;22.47;59.84;97336.53;565112;250;66953;-74
2023/08/12 11:44:29;;;;;;;;;;;;;;;22.47;59.65;97341.89;565159;251;64935;-73
2023/08/12 11:46:57;;;;;;;;;;;;;;;22.47;59.73;97327.70;565158;251;67302;-73
2023/08/12 11:49:24;;;;;;;;;;;;;;;22.48;59.71;97334.65;565175;250;66952;-73
2023/08/12 11:51:52;;;;;;;;;;;;;;;22.48;59.63;97326.61;565124;251;64939;-73
2023/08/12 11:54:20;;;;;;;;;;;;;;;22.48;59.69;97326.61;565102;250;67116;-73
2023/08/12 11:56:47;;;;;;;;;;;;;;;22.49;59.65;97325.56;565068;251;66918;-73
2023/08/12 11:59:15;;;;;;;;;;;;;;;22.48;59.58;97329.30;565077;250;64968;-73
2023/08/12 12:01:48;;;;;;;;;;;;;;;22.48;59.71;97322.09;565134;250;65981;-73
2023/08/12 12:04:13;;;;;;;;;;;;;;;22.48;59.75;97316.73;565087;250;66987;-73
2023/08/12 12:06:41;;;;;;;;;;;;;;;22.49;59.79;97329.03;565151;250;63132;-73
2023/08/12 12:09:10;;;;;;;;;;;;;;;22.50;59.86;97329.83;565125;251;64914;-73
2023/08/12 12:11:38;;;;;;;;;;;;;;;22.49;59.83;97323.67;565141;251;66705;-73
2023/08/12 12:14:07;;;;;;;;;;;;;;;22.50;60.01;97327.16;565102;251;64927;-73
2023/08/12 12:16:44;;;;;;;;;;;;;;;22.50;60.00;97327.16;565130;251;67083;-73
2023/08/12 12:19:13;;;;;;;;;;;;;;;22.49;59.96;97312.97;565100;251;67297;-74
2023/08/12 12:21:41;;;;;;;;;;;;;;;22.50;60.01;97314.55;565220;250;64930;-74
2023/08/12 12:24:11;;;;;;;;;;;;;;;22.51;59.99;97310.03;565169;250;67094;-74
2023/08/12 12:26:39;;;;;;;;;;;;;;;22.51;60.01;97307.34;565115;251;67197;-74
2023/08/12 12:29:07;;;;;;;;;;;;;;;22.51;60.05;97307.34;565154;250;63146;-74
2023/08/12 12:31:35;;;;;;;;;;;;;;;22.50;60.05;97295.80;565140;251;67140;-74
2023/08/12 12:34:06;;;;;;;;;;;;;;;22.51;60.06;97305.47;565119;250;67313;-74
2023/08/12 12:36:36;;;;;;;;;;;;;;;22.51;59.99;97292.08;565166;250;64960;-74
2023/08/12 12:39:04;;;;;;;;;;;;;;;22.51;59.95;97297.43;565027;250;67505;-74
2023/08/12 12:41:32;;;;;;;;;;;;;;;22.50;60.07;97295.02;565108;251;67105;-74
2023/08/12 12:44:01;;;;;;;;;;;;;;;22.51;60.06;97299.31;565131;251;62925;-74
2023/08/12 12:46:29;;;;;;;;;;;;;;;22.52;60.03;97300.91;565156;251;65102;-74
2023/08/12 12:48:57;;;;;;;;;;;;;;;22.52;59.97;97292.88;565142;251;65066;-74
2023/08/12 12:51:24;;;;;;;;;;;;;;;22.52;59.96;97300.91;565329;250;62770;-74